Time;durP1;ratioP1;P1;durP2;ratioP2;P2;SDS_P1;SDS_P2;PMS_P1;PMS_P2;Temp;Humidity;BMP_temperature;BMP_pressure;BME280_temperature;BME280_humidity;BME280_pressure;Samples;Min_cycle;Max_cycle;Signal;HPM_P1;HPM_P2
2021/01/13 00:02:07;;;;;;;11.13;8.37;;;;;;;-1.42;100.00;97766.44;4981651;28;20855;-73
2021/01/13 00:04:34;;;;;;;9.20;8.30;;;;;;;-1.43;100.00;97777.78;4980324;28;20259;-72
2021/01/13 00:07:03;;;;;;;9.77;8.80;;;;;;;-1.38;100.00;97776.56;4980758;28;20864;-73
2021/01/13 00:09:30;;;;;;;9.83;8.83;;;;;;;-1.44;100.00;97784.75;4977204;28;20348;-73
2021/01/13 00:11:58;;;;;;;10.00;9.03;;;;;;;-1.32;100.00;97783.16;4979629;28;20547;-72
2021/01/13 00:14:26;;;;;;;10.47;8.70;;;;;;;-1.34;100.00;97775.44;4978957;28;20543;-72
2021/01/13 00:16:54;;;;;;;10.03;8.17;;;;;;;-1.37;100.00;97786.03;4978828;28;20480;-72
2021/01/13 00:19:21;;;;;;;11.77;8.20;;;;;;;-1.32;100.00;97781.38;4982629;28;20456;-72
2021/01/13 00:21:49;;;;;;;9.43;8.33;;;;;;;-1.42;100.00;97779.44;4982577;28;21020;-73
2021/01/13 00:24:17;;;;;;;9.13;8.23;;;;;;;-1.35;100.00;97789.38;4982278;28;20449;-72
2021/01/13 00:26:45;;;;;;;10.13;8.30;;;;;;;-1.31;100.00;97790.03;4981389;28;20456;-73
2021/01/13 00:29:12;;;;;;;13.53;9.67;;;;;;;-1.25;100.00;97792.25;4982173;28;20469;-72
2021/01/13 00:31:39;;;;;;;9.67;8.57;;;;;;;-1.19;100.00;97789.28;4982713;28;20741;-72
2021/01/13 00:34:07;;;;;;;10.73;8.80;;;;;;;-1.20;100.00;97798.00;4981214;28;21015;-72
2021/01/13 00:36:34;;;;;;;11.73;9.20;;;;;;;-1.23;100.00;97798.19;4982575;28;21254;-72
2021/01/13 00:39:01;;;;;;;8.77;7.87;;;;;;;-1.13;100.00;97795.88;4981476;28;20548;-72
2021/01/13 00:41:29;;;;;;;9.10;8.17;;;;;;;-1.09;100.00;97801.69;4979957;28;20478;-72
2021/01/13 00:43:56;;;;;;;10.23;8.90;;;;;;;-1.11;100.00;97804.41;4982192;28;21011;-73
2021/01/13 00:46:24;;;;;;;10.57;8.77;;;;;;;-1.00;100.00;97808.09;4982345;28;20343;-72
2021/01/13 00:48:51;;;;;;;11.93;8.63;;;;;;;-0.93;100.00;97810.22;4982290;28;20456;-73
2021/01/13 00:51:18;;;;;;;11.73;8.40;;;;;;;-1.01;100.00;97802.06;4982897;28;20571;-72
2021/01/13 00:53:46;;;;;;;8.93;7.60;;;;;;;-1.05;100.00;97814.44;4983201;28;20493;-72
2021/01/13 00:56:13;;;;;;;9.33;8.43;;;;;;;-1.10;100.00;97815.63;4981568;28;21000;-73
2021/01/13 00:58:44;;;;;;;11.37;9.07;;;;;;;-1.03;100.00;97820.38;4982343;28;20604;-72
2021/01/13 01:01:11;;;;;;;8.47;7.57;;;;;;;-1.11;100.00;97821.78;4985529;28;20954;-72
2021/01/13 01:03:39;;;;;;;10.30;8.33;;;;;;;-1.09;100.00;97825.09;4981172;28;20601;-72
2021/01/13 01:06:06;;;;;;;10.17;8.43;;;;;;;-1.13;100.00;97828.84;4981132;28;20868;-71
2021/01/13 01:08:33;;;;;;;9.67;8.50;;;;;;;-1.23;100.00;97833.75;4982987;28;20214;-72
2021/01/13 01:11:05;;;;;;;12.33;8.20;;;;;;;-1.19;100.00;97835.22;4983749;28;20514;-72
2021/01/13 01:13:33;;;;;;;13.10;9.87;;;;;;;-1.18;100.00;97837.75;4982764;28;20523;-72
2021/01/13 01:16:01;;;;;;;9.93;8.87;;;;;;;-1.19;100.00;97846.50;4982380;28;20956;-72
2021/01/13 01:18:28;;;;;;;12.73;8.97;;;;;;;-1.13;100.00;97840.09;4980869;28;20462;-72
2021/01/13 01:20:55;;;;;;;11.87;9.03;;;;;;;-1.28;100.00;97848.81;4981973;28;20551;-71
2021/01/13 01:23:22;;;;;;;10.00;9.00;;;;;;;-1.19;100.00;97854.28;4985523;28;20560;-72
2021/01/13 01:25:50;;;;;;;14.00;8.33;;;;;;;-1.13;100.00;97860.03;4983406;28;20480;-72
2021/01/13 01:28:17;;;;;;;10.50;8.30;;;;;;;-1.11;100.00;97859.03;4987373;28;20870;-72
2021/01/13 01:30:44;;;;;;;10.27;8.80;;;;;;;-1.05;100.00;97863.00;4985561;28;20476;-72
2021/01/13 01:33:12;;;;;;;10.77;8.50;;;;;;;-1.19;100.00;97867.28;4986086;28;20456;-72
2021/01/13 01:35:39;;;;;;;10.87;8.70;;;;;;;-1.24;100.00;97868.50;4990714;28;20620;-72
2021/01/13 01:38:07;;;;;;;13.23;9.43;;;;;;;-1.14;100.00;97871.38;4984428;28;20542;-72
2021/01/13 01:40:34;;;;;;;11.50;8.73;;;;;;;-1.22;100.00;97870.06;4985197;28;20651;-72
2021/01/13 01:43:01;;;;;;;11.00;8.83;;;;;;;-1.19;100.00;97872.50;4988034;28;20489;-72
2021/01/13 01:45:30;;;;;;;10.37;8.60;;;;;;;-1.14;100.00;97872.19;4986306;28;20257;-72
2021/01/13 01:48:14;;;;;;;9.17;7.63;;;;;;;-1.09;100.00;97874.53;4986671;28;20307;-72
2021/01/13 01:50:43;;;;;;;8.23;7.47;;;;;;;-1.19;100.00;97872.50;4989070;28;20479;-73
2021/01/13 01:53:41;;;;;;;9.87;8.07;;;;;;;-1.11;100.00;97869.44;4987807;28;20466;-72
2021/01/13 01:56:17;;;;;;;9.57;8.30;;;;;;;-1.20;100.00;97869.97;4945840;28;20453;-72
2021/01/13 01:58:49;;;;;;;12.57;7.17;;;;;;;-1.25;100.00;97887.63;4984470;28;20966;-72
2021/01/13 02:01:22;;;;;;;9.17;7.17;;;;;;;-1.23;100.00;97876.22;4991430;28;20495;-72
2021/01/13 02:03:54;;;;;;;10.03;8.33;;;;;;;-1.37;100.00;97871.84;4984233;28;20465;-72
2021/01/13 02:06:26;;;;;;;8.50;7.70;;;;;;;-1.44;100.00;97873.13;4985280;28;20787;-72
2021/01/13 02:08:53;;;;;;;10.60;8.83;;;;;;;-1.51;100.00;97877.84;4980409;28;20976;-72
2021/01/13 02:11:20;;;;;;;9.20;8.07;;;;;;;-1.47;100.00;97892.34;4983574;28;20457;-72
2021/01/13 02:13:49;;;;;;;11.40;8.80;;;;;;;-1.48;100.00;97888.06;4984190;28;20977;-72
2021/01/13 02:16:18;;;;;;;11.60;8.53;;;;;;;-1.54;100.00;97891.03;4984895;28;20511;-72
2021/01/13 02:18:48;;;;;;;8.90;8.00;;;;;;;-1.50;100.00;97889.91;4984529;28;20547;-72
2021/01/13 02:21:17;;;;;;;9.83;8.50;;;;;;;-1.53;100.00;97884.91;4987013;28;20560;-72
2021/01/13 02:23:49;;;;;;;13.13;9.03;;;;;;;-1.52;100.00;97891.78;4982780;28;20670;-72
2021/01/13 02:26:42;;;;;;;10.07;8.73;;;;;;;-1.52;100.00;97891.78;4987647;28;20493;-72
2021/01/13 02:29:21;;;;;;;13.47;9.27;;;;;;;-1.44;100.00;97898.28;4956755;28;20465;-73
2021/01/13 02:31:54;;;;;;;12.77;9.70;;;;;;;-1.34;100.00;97909.78;4982581;28;20489;-72
2021/01/13 02:34:58;;;;;;;10.67;9.67;;;;;;;-1.41;100.00;97911.09;4983329;28;20459;-72
2021/01/13 02:37:43;;;;;;;10.17;9.03;;;;;;;-1.38;100.00;97903.09;4983449;28;20468;-72
2021/01/13 02:40:16;;;;;;;10.20;9.10;;;;;;;-1.35;100.00;97914.19;4986663;28;20551;-72
2021/01/13 02:42:57;;;;;;;10.07;9.07;;;;;;;-1.29;100.00;97910.38;4985185;28;20459;-72
2021/01/13 02:45:26;;;;;;;11.23;9.63;;;;;;;-1.36;100.00;97909.06;4983070;28;20507;-72
2021/01/13 02:48:04;;;;;;;12.70;9.57;;;;;;;-1.27;100.00;97905.06;4989698;28;20551;-72
2021/01/13 02:50:34;;;;;;;10.10;9.20;;;;;;;-1.34;100.00;97902.00;4986182;28;20573;-72
2021/01/13 02:53:40;;;;;;;13.43;9.57;;;;;;;-1.34;100.00;97899.41;4987891;28;20301;-72
2021/01/13 02:56:16;;;;;;;11.40;8.93;;;;;;;-1.32;100.00;97911.38;4982049;28;20560;-72
2021/01/13 02:58:47;;;;;;;12.20;9.57;;;;;;;-1.33;100.00;97901.06;4984760;28;20756;-72
2021/01/13 03:01:15;;;;;;;10.27;9.20;;;;;;;-1.35;100.00;97900.31;4982625;28;20531;-72
2021/01/13 03:03:44;;;;;;;11.43;9.53;;;;;;;-1.33;100.00;97901.91;4982209;28;20292;-72
2021/01/13 03:06:12;;;;;;;12.77;9.40;;;;;;;-1.27;100.00;97905.94;4982354;28;20551;-73
2021/01/13 03:08:46;;;;;;;11.80;9.20;;;;;;;-1.39;100.00;97907.50;4984238;28;20457;-72
2021/01/13 03:11:17;;;;;;;11.63;9.70;;;;;;;-1.48;100.00;97897.66;4984056;28;20458;-72
2021/01/13 03:13:45;;;;;;;10.13;8.23;;;;;;;-1.52;100.00;97896.13;4980717;28;20457;-72
2021/01/13 03:16:13;;;;;;;14.07;9.70;;;;;;;-1.61;100.00;97898.34;4985614;28;20980;-72
2021/01/13 03:19:03;;;;;;;11.63;10.43;;;;;;;-1.64;100.00;97908.09;4984123;28;21014;-72
2021/01/13 03:21:41;;;;;;;14.77;9.60;;;;;;;-1.67;100.00;97909.09;4982083;28;20992;-71
2021/01/13 03:24:15;;;;;;;11.03;8.13;;;;;;;-1.67;100.00;97911.69;4986286;28;20459;-72
2021/01/13 03:26:46;;;;;;;11.50;8.90;;;;;;;-1.68;100.00;97917.00;4991440;28;20562;-72
2021/01/13 03:29:19;;;;;;;16.00;9.77;;;;;;;-1.67;100.00;97910.88;4984851;28;21051;-72
2021/01/13 03:32:05;;;;;;;10.00;8.73;;;;;;;-1.66;100.00;97912.56;4981855;28;20458;-72
2021/01/13 03:34:35;;;;;;;10.70;9.60;;;;;;;-1.68;100.00;97912.63;4985666;28;21193;-72
2021/01/13 03:37:16;;;;;;;11.80;8.87;;;;;;;-1.64;100.00;97915.91;4984803;28;21064;-72
2021/01/13 03:39:44;;;;;;;10.43;9.47;;;;;;;-1.64;100.00;97926.28;4982196;28;20464;-72
2021/01/13 03:42:14;;;;;;;11.00;9.17;;;;;;;-1.67;100.00;97927.28;4984550;28;20560;-72
2021/01/13 03:44:43;;;;;;;11.60;8.67;;;;;;;-1.68;100.00;97925.63;4977710;28;21031;-73
2021/01/13 03:47:33;;;;;;;13.60;9.73;;;;;;;-1.60;100.00;97926.00;4977475;28;20842;-73
2021/01/13 03:50:11;;;;;;;12.47;8.10;;;;;;;-1.62;100.00;97919.25;4981610;28;20596;-74
2021/01/13 03:52:40;;;;;;;13.50;9.43;;;;;;;-1.46;100.00;97924.38;4982432;28;20554;-73
2021/01/13 03:55:08;;;;;;;13.57;9.67;;;;;;;-1.52;100.00;97925.56;4981607;28;20956;-73
2021/01/13 03:58:18;;;;;;;11.77;8.53;;;;;;;-1.53;100.00;97930.84;4977858;28;20487;-73
2021/01/13 04:00:59;;;;;;;8.67;7.60;;;;;;;-1.50;100.00;97931.50;4937295;28;20483;-73
2021/01/13 04:03:30;;;;;;;8.27;7.33;;;;;;;-1.53;100.00;97931.69;4980400;28;20484;-72
2021/01/13 04:06:11;;;;;;;9.20;7.60;;;;;;;-1.48;100.00;97940.06;4980344;28;20489;-72
2021/01/13 04:08:40;;;;;;;11.77;8.67;;;;;;;-1.52;100.00;97946.34;4981247;28;20555;-73
2021/01/13 04:11:09;;;;;;;10.37;7.03;;;;;;;-1.41;100.00;97944.88;4980042;28;20554;-73
2021/01/13 04:13:41;;;;;;;10.80;7.10;;;;;;;-1.43;100.00;97955.41;4986279;28;20205;-73
2021/01/13 04:16:10;;;;;;;9.10;7.30;;;;;;;-1.41;100.00;97950.09;4982765;28;20837;-72
2021/01/13 04:18:39;;;;;;;8.03;7.23;;;;;;;-1.46;100.00;97950.38;4981340;28;20933;-73
2021/01/13 04:21:08;;;;;;;8.80;6.63;;;;;;;-1.44;100.00;97951.13;4984571;28;20482;-73
2021/01/13 04:23:37;;;;;;;7.47;6.77;;;;;;;-1.22;100.00;97955.91;4976711;28;20464;-72
2021/01/13 04:26:04;;;;;;;7.43;6.57;;;;;;;-1.11;100.00;97957.88;4976820;28;20706;-72
2021/01/13 04:28:32;;;;;;;10.40;6.83;;;;;;;-1.28;100.00;97951.06;4984854;28;20453;-72
2021/01/13 04:31:00;;;;;;;8.90;7.33;;;;;;;-1.25;100.00;97955.22;4983711;28;20475;-72
2021/01/13 04:33:28;;;;;;;13.37;7.27;;;;;;;-1.28;100.00;97965.81;4985161;28;20455;-73
2021/01/13 04:35:55;;;;;;;7.30;6.13;;;;;;;-1.35;100.00;97960.97;4983603;28;20332;-73
2021/01/13 04:38:24;;;;;;;10.93;6.80;;;;;;;-1.19;100.00;97960.06;4980672;28;20464;-73
2021/01/13 04:41:07;;;;;;;9.97;7.40;;;;;;;-1.40;100.00;97955.22;4978576;28;20567;-73
2021/01/13 04:43:51;;;;;;;10.60;7.63;;;;;;;-1.35;100.00;97958.38;4985618;28;20775;-72
2021/01/13 04:46:36;;;;;;;8.37;7.33;;;;;;;-1.43;100.00;97957.16;4981150;28;20316;-72
2021/01/13 04:49:09;;;;;;;9.33;6.73;;;;;;;-1.40;100.00;97962.16;4983205;28;20940;-72
2021/01/13 04:51:39;;;;;;;13.00;7.07;;;;;;;-1.49;100.00;97956.56;4981726;28;20209;-72
2021/01/13 04:54:08;;;;;;;8.97;6.33;;;;;;;-1.51;100.00;97953.22;4983077;28;20456;-73
2021/01/13 04:56:52;;;;;;;9.13;7.20;;;;;;;-1.52;100.00;97956.75;4982629;28;20232;-73
2021/01/13 05:00:06;;;;;;;11.53;6.57;;;;;;;-1.52;100.00;97966.31;4981965;28;20457;-72
2021/01/13 05:03:07;;;;;;;10.53;7.10;;;;;;;-1.56;100.00;97970.84;4983769;28;20480;-73
2021/01/13 05:05:46;;;;;;;12.43;7.00;;;;;;;-1.63;100.00;97972.13;4986005;28;20797;-73
2021/01/13 05:08:32;;;;;;;7.77;7.00;;;;;;;-1.57;100.00;97971.78;4985095;28;20490;-73
2021/01/13 05:11:13;;;;;;;10.40;6.43;;;;;;;-1.74;100.00;97980.53;4989608;28;20449;-72
2021/01/13 05:13:43;;;;;;;13.00;6.63;;;;;;;-1.80;100.00;97981.72;4986612;28;20440;-74
2021/01/13 05:16:11;;;;;;;8.50;7.50;;;;;;;-1.87;100.00;97982.97;4985453;28;20504;-73
2021/01/13 05:18:56;;;;;;;6.37;5.80;;;;;;;-1.89;100.00;97990.03;4986804;28;20465;-73
2021/01/13 05:21:25;;;;;;;8.30;6.30;;;;;;;-1.98;100.00;97987.94;4987460;28;20567;-73
2021/01/13 05:23:53;;;;;;;9.57;6.90;;;;;;;-1.98;100.00;97988.78;4984742;28;20460;-73
2021/01/13 05:26:21;;;;;;;13.63;7.33;;;;;;;-2.06;100.00;97997.00;4986266;28;20484;-73
2021/01/13 05:29:33;;;;;;;8.90;6.83;;;;;;;-2.15;100.00;97996.66;4990715;28;20503;-75
2021/01/13 05:32:03;;;;;;;13.53;7.73;;;;;;;-2.18;100.00;97989.88;4986060;28;20659;-75
2021/01/13 05:34:32;;;;;;;7.40;6.57;;;;;;;-2.15;100.00;97994.06;4988619;28;20466;-75
2021/01/13 05:37:17;;;;;;;11.40;7.67;;;;;;;-2.22;100.00;97990.97;4986655;28;20487;-75
2021/01/13 05:39:46;;;;;;;7.30;6.60;;;;;;;-2.26;100.00;97989.47;4985300;28;20474;-73
2021/01/13 05:42:17;;;;;;;9.13;7.13;;;;;;;-2.30;100.00;97995.75;4986762;28;20460;-73
2021/01/13 05:44:44;;;;;;;10.17;7.63;;;;;;;-2.35;100.00;97995.97;4983700;28;20495;-73
2021/01/13 05:47:49;;;;;;;11.10;6.83;;;;;;;-2.40;100.00;97991.06;4985054;28;20612;-73
2021/01/13 05:50:18;;;;;;;6.87;6.27;;;;;;;-2.44;100.00;97994.75;4985778;28;20489;-73
2021/01/13 05:52:47;;;;;;;7.50;6.70;;;;;;;-2.53;100.00;97993.47;4985720;28;20461;-73
2021/01/13 05:55:16;;;;;;;12.30;7.07;;;;;;;-2.49;100.00;97992.38;4985366;28;20454;-73
2021/01/13 05:57:54;;;;;;;10.63;7.23;;;;;;;-2.52;100.00;97986.50;4981128;28;20527;-73
2021/01/13 06:00:23;;;;;;;9.13;6.60;;;;;;;-2.61;100.00;97990.44;4984733;28;20460;-73
2021/01/13 06:02:56;;;;;;;11.07;6.47;;;;;;;-2.68;100.00;97995.09;4979029;28;20457;-73
2021/01/13 06:05:25;;;;;;;8.87;7.00;;;;;;;-2.63;100.00;97990.50;4985121;28;20457;-73
2021/01/13 06:07:52;;;;;;;9.40;7.13;;;;;;;-2.69;100.00;97990.84;4980346;28;20489;-74
2021/01/13 06:10:20;;;;;;;6.70;6.20;;;;;;;-2.68;100.00;97994.25;4986872;28;20545;-73
2021/01/13 06:12:49;;;;;;;7.63;6.90;;;;;;;-2.71;100.00;97987.50;4982784;28;20471;-73
2021/01/13 06:15:24;;;;;;;12.70;6.70;;;;;;;-2.80;100.00;97987.97;4984149;28;20463;-73
2021/01/13 06:17:53;;;;;;;7.93;6.60;;;;;;;-2.80;100.00;97982.78;4983114;28;20602;-73
2021/01/13 06:20:22;;;;;;;8.93;6.40;;;;;;;-2.84;100.00;97981.25;4989541;28;20455;-73
2021/01/13 06:22:50;;;;;;;8.57;6.70;;;;;;;-2.81;100.00;97988.91;4988338;28;20558;-74
2021/01/13 06:25:23;;;;;;;10.10;7.27;;;;;;;-2.95;100.00;97987.84;4983139;28;20471;-73
2021/01/13 06:28:18;;;;;;;10.27;7.17;;;;;;;-2.88;100.00;97985.78;4985458;28;20503;-73
2021/01/13 06:30:46;;;;;;;10.40;6.00;;;;;;;-2.84;100.00;97997.66;4989092;28;20825;-74
2021/01/13 06:33:23;;;;;;;7.67;6.87;;;;;;;-2.78;100.00;97997.34;4980287;28;20808;-73
2021/01/13 06:36:22;;;;;;;7.77;6.53;;;;;;;-2.89;100.00;97993.63;4989359;28;20452;-73
2021/01/13 06:38:56;;;;;;;9.80;6.87;;;;;;;-2.94;100.00;97986.09;4986167;28;20515;-74
2021/01/13 06:41:24;;;;;;;8.23;7.00;;;;;;;-2.91;100.00;97989.34;4984350;28;20838;-73
2021/01/13 06:43:59;;;;;;;10.30;7.80;;;;;;;-2.92;100.00;97995.47;4985915;28;20535;-73
2021/01/13 06:46:27;;;;;;;9.37;6.90;;;;;;;-2.98;100.00;98005.34;4990036;28;20660;-73
2021/01/13 06:48:56;;;;;;;11.37;6.60;;;;;;;-2.89;100.00;98001.41;4985443;28;20469;-73
2021/01/13 06:51:24;;;;;;;10.03;6.83;;;;;;;-2.85;100.00;98002.91;4985712;28;20447;-74
2021/01/13 06:53:51;;;;;;;8.23;7.30;;;;;;;-2.86;100.00;98016.81;4979811;28;20454;-74
2021/01/13 06:56:21;;;;;;;10.53;7.30;;;;;;;-2.86;100.00;98009.88;4987530;28;20550;-73
2021/01/13 06:59:00;;;;;;;7.93;7.13;;;;;;;-2.76;100.00;98012.84;4986938;28;20588;-73
2021/01/13 07:01:27;;;;;;;9.50;7.40;;;;;;;-2.77;100.00;98009.38;4985598;28;20818;-73
2021/01/13 07:04:00;;;;;;;8.20;7.03;;;;;;;-2.61;100.00;98016.38;4987927;28;20457;-73
2021/01/13 07:06:28;;;;;;;7.00;6.30;;;;;;;-2.63;100.00;98013.88;4985164;28;20499;-73
2021/01/13 07:08:55;;;;;;;9.77;7.73;;;;;;;-2.56;100.00;98022.19;4982081;28;20476;-73
2021/01/13 07:11:22;;;;;;;7.07;6.37;;;;;;;-2.48;100.00;98017.41;4984177;28;20452;-73
2021/01/13 07:13:51;;;;;;;8.47;7.47;;;;;;;-2.50;100.00;98021.00;4984744;28;20471;-74
2021/01/13 07:16:26;;;;;;;7.43;6.73;;;;;;;-2.47;100.00;98019.09;4985900;28;20468;-73
2021/01/13 07:18:56;;;;;;;9.63;6.80;;;;;;;-2.43;100.00;98017.19;4984317;28;21015;-73
2021/01/13 07:21:37;;;;;;;9.50;7.07;;;;;;;-2.45;100.00;98023.34;4985911;28;20567;-73
2021/01/13 07:24:12;;;;;;;8.87;7.37;;;;;;;-2.42;100.00;98016.25;4983252;28;20571;-74
2021/01/13 07:26:40;;;;;;;10.30;7.00;;;;;;;-2.47;100.00;98031.22;4985071;28;20498;-73
2021/01/13 07:29:07;;;;;;;8.13;7.37;;;;;;;-2.47;100.00;98028.63;4984271;28;20547;-73
2021/01/13 07:31:35;;;;;;;7.33;6.60;;;;;;;-2.54;100.00;98022.94;4979071;28;20987;-74
2021/01/13 07:34:08;;;;;;;8.13;6.97;;;;;;;-2.51;100.00;98029.69;4985251;28;20468;-73
2021/01/13 07:36:40;;;;;;;18.80;16.80;;;;;;;-2.40;100.00;98032.59;4986178;28;20508;-74
2021/01/13 07:39:09;;;;;;;9.80;8.37;;;;;;;-2.50;100.00;98028.78;4985753;28;20543;-73
2021/01/13 07:42:11;;;;;;;9.17;6.47;;;;;;;-2.43;100.00;98032.75;4985863;28;20535;-74
2021/01/13 07:44:42;;;;;;;8.83;7.17;;;;;;;-2.43;100.00;98024.97;4986397;28;20832;-73
2021/01/13 07:47:27;;;;;;;9.53;7.20;;;;;;;-2.55;100.00;98028.19;4984681;28;20492;-74
2021/01/13 07:50:05;;;;;;;39.27;24.67;;;;;;;-2.51;100.00;98027.97;4983831;28;20460;-73
2021/01/13 07:52:38;;;;;;;16.67;12.00;;;;;;;-2.59;100.00;98040.50;4983498;28;20804;-74
2021/01/13 07:55:14;;;;;;;8.87;7.20;;;;;;;-2.58;100.00;98036.13;4984129;28;20488;-74
2021/01/13 07:57:46;;;;;;;20.20;13.10;;;;;;;-2.57;100.00;98035.22;4985790;28;20480;-74
2021/01/13 08:00:24;;;;;;;9.77;7.83;;;;;;;-2.54;100.00;98038.50;4981528;28;20460;-74
2021/01/13 08:03:27;;;;;;;12.23;7.77;;;;;;;-2.54;100.00;98037.66;4983384;28;20560;-74
2021/01/13 08:06:37;;;;;;;10.13;6.97;;;;;;;-2.52;100.00;98038.41;4953743;28;20824;-74
2021/01/13 08:09:10;;;;;;;9.40;7.30;;;;;;;-2.63;100.00;98036.41;4980431;28;20920;-73
2021/01/13 08:12:13;;;;;;;10.43;8.07;;;;;;;-2.60;100.00;98037.97;4982889;28;20459;-73
2021/01/13 08:15:14;;;;;;;9.90;8.10;;;;;;;-2.57;100.00;98048.19;4983113;28;20464;-73
2021/01/13 08:18:09;;;;;;;11.07;8.27;;;;;;;-2.43;100.00;98047.47;4977811;28;20480;-74
2021/01/13 08:21:04;;;;;;;13.57;9.17;;;;;;;-2.53;100.00;98050.56;4980636;28;20452;-74
2021/01/13 08:23:37;;;;;;;9.13;8.33;;;;;;;-2.56;100.00;98053.31;4983366;28;20821;-73
2021/01/13 08:26:06;;;;;;;11.27;9.13;;;;;;;-2.51;100.00;98055.66;4983815;28;20539;-73
2021/01/13 08:28:37;;;;;;;12.23;9.33;;;;;;;-2.50;100.00;98046.94;4987577;28;20491;-73
2021/01/13 08:31:05;;;;;;;10.70;9.57;;;;;;;-2.41;100.00;98054.28;4984873;28;20456;-74
2021/01/13 08:33:34;;;;;;;12.17;9.93;;;;;;;-2.36;100.00;98065.25;4984630;28;20752;-74
2021/01/13 08:36:09;;;;;;;14.67;9.03;;;;;;;-2.31;100.00;98057.19;4983764;28;20547;-74
2021/01/13 08:38:37;;;;;;;12.20;10.50;;;;;;;-2.27;100.00;98061.34;4989806;28;20447;-74
2021/01/13 08:41:24;;;;;;;14.50;9.43;;;;;;;-2.10;100.00;98057.81;4986574;28;20624;-73
2021/01/13 08:44:12;;;;;;;9.93;8.93;;;;;;;-1.97;100.00;98050.19;4991125;28;20457;-74
2021/01/13 08:46:50;;;;;;;12.37;10.63;;;;;;;-1.86;100.00;98057.41;4986992;28;20523;-73
2021/01/13 08:49:23;;;;;;;11.43;10.13;;;;;;;-1.70;100.00;98066.97;4985568;28;20685;-74
2021/01/13 08:52:13;;;;;;;10.90;8.20;;;;;;;-1.85;100.00;98061.69;4983237;28;20448;-73
2021/01/13 08:54:41;;;;;;;13.50;9.07;;;;;;;-1.78;100.00;98067.38;4988282;28;20464;-73
2021/01/13 08:57:10;;;;;;;19.73;15.03;;;;;;;-1.68;100.00;98067.72;4983852;28;20488;-73
2021/01/13 08:59:42;;;;;;;31.40;21.80;;;;;;;-1.70;100.00;98062.59;4985755;28;20961;-74
2021/01/13 09:02:12;;;;;;;18.07;13.57;;;;;;;-1.56;100.00;98061.81;4985449;28;20558;-73
2021/01/13 09:04:49;;;;;;;12.87;10.00;;;;;;;-1.34;100.00;98060.59;4985355;28;20553;-73
2021/01/13 09:07:17;;;;;;;14.57;9.70;;;;;;;-1.17;100.00;98064.84;4984877;28;20599;-73
2021/01/13 09:09:57;;;;;;;10.47;9.37;;;;;;;-1.11;100.00;98059.31;4985039;28;20206;-74
2021/01/13 09:12:31;;;;;;;10.30;9.27;;;;;;;-0.97;98.48;98063.69;4984063;28;20738;-73
2021/01/13 09:15:16;;;;;;;8.70;7.63;;;;;;;-0.83;96.70;98067.25;4991766;28;20231;-74
2021/01/13 09:17:47;;;;;;;13.50;12.03;;;;;;;-0.69;96.36;98069.88;4983965;28;20335;-73
2021/01/13 09:20:22;;;;;;;7.03;6.33;;;;;;;-0.56;95.16;98076.97;4989009;28;20927;-73
2021/01/13 09:22:52;;;;;;;9.23;8.30;;;;;;;-0.52;94.23;98078.44;4986480;28;20292;-73
2021/01/13 09:25:20;;;;;;;16.77;11.23;;;;;;;-0.49;94.25;98060.88;4988535;28;20205;-73
2021/01/13 09:27:51;;;;;;;15.73;12.37;;;;;;;-0.44;93.85;98066.63;4985166;28;20494;-73
2021/01/13 09:30:38;;;;;;;16.57;10.07;;;;;;;-0.45;92.59;98069.34;4982500;28;20236;-73
2021/01/13 09:33:08;;;;;;;13.53;9.83;;;;;;;-0.37;91.99;98074.91;4986597;28;20461;-73
2021/01/13 09:35:37;;;;;;;17.87;12.90;;;;;;;-0.43;91.75;98077.91;4986110;28;20217;-73
2021/01/13 09:38:08;;;;;;;24.70;13.33;;;;;;;-0.34;91.66;98077.31;4987107;28;20229;-73
2021/01/13 09:40:52;;;;;;;13.37;8.27;;;;;;;-0.25;91.11;98098.53;4990037;28;20213;-73
2021/01/13 09:43:25;;;;;;;8.50;6.87;;;;;;;-0.10;90.63;98083.72;4981107;28;20208;-73
2021/01/13 09:45:53;;;;;;;6.70;6.03;;;;;;;-0.20;90.25;98079.09;4989274;28;20227;-73
2021/01/13 09:48:23;;;;;;;10.77;7.63;;;;;;;-0.34;90.54;98077.31;4982848;28;20988;-73
2021/01/13 09:50:59;;;;;;;10.17;6.80;;;;;;;-0.37;91.14;98074.91;4985547;28;20594;-73
2021/01/13 09:53:30;;;;;;;23.87;14.40;;;;;;;-0.37;91.57;98066.28;4984060;28;20300;-73
2021/01/13 09:56:05;;;;;;;8.73;6.67;;;;;;;-0.46;91.44;98075.47;4984872;28;20210;-73
2021/01/13 09:58:41;;;;;;;14.97;10.67;;;;;;;-0.33;91.02;98084.22;4982147;28;20208;-74
2021/01/13 10:01:14;;;;;;;11.30;9.17;;;;;;;-0.16;89.66;98082.38;4985921;28;20285;-73
2021/01/13 10:03:43;;;;;;;11.47;9.00;;;;;;;0.18;88.16;98082.84;4985891;28;20202;-73
2021/01/13 10:06:19;;;;;;;11.83;6.37;;;;;;;0.33;86.18;98075.84;4982825;28;20642;-73
2021/01/13 10:09:11;;;;;;;6.23;5.63;;;;;;;0.26;86.92;98070.19;4982957;28;20218;-73
2021/01/13 10:11:39;;;;;;;6.80;6.00;;;;;;;0.22;85.88;98081.75;4986313;28;20555;-74
2021/01/13 10:14:09;;;;;;;8.47;5.77;;;;;;;0.09;86.19;98073.84;4985296;28;20212;-73
2021/01/13 10:16:40;;;;;;;7.93;5.53;;;;;;;-0.10;87.31;98063.75;4985505;28;20222;-73
2021/01/13 10:19:08;;;;;;;5.90;5.33;;;;;;;-0.09;87.33;98067.16;4987669;28;20202;-73
2021/01/13 10:21:36;;;;;;;7.03;5.53;;;;;;;-0.08;87.31;98058.41;4986390;28;20241;-74
2021/01/13 10:24:04;;;;;;;7.40;5.57;;;;;;;-0.02;87.56;98056.28;4989243;28;20575;-73
2021/01/13 10:26:36;;;;;;;8.47;5.10;;;;;;;-0.13;87.05;98052.66;4986085;28;20585;-73
2021/01/13 10:29:04;;;;;;;8.07;5.67;;;;;;;-0.18;86.63;98051.19;4985694;28;20204;-74
2021/01/13 10:31:34;;;;;;;6.03;5.10;;;;;;;-0.24;86.45;98051.56;4986253;28;20297;-73
2021/01/13 10:34:01;;;;;;;7.60;5.20;;;;;;;-0.21;86.73;98050.53;4990390;28;20305;-73
2021/01/13 10:36:38;;;;;;;6.70;5.03;;;;;;;-0.10;87.21;98048.13;4985047;28;20569;-73
2021/01/13 10:39:14;;;;;;;6.33;5.73;;;;;;;0.12;84.23;98046.75;4986211;28;20740;-73
2021/01/13 10:41:44;;;;;;;7.80;6.87;;;;;;;0.30;84.69;98029.09;4982159;28;20670;-73
2021/01/13 10:44:14;;;;;;;6.13;4.80;;;;;;;0.24;83.38;98046.00;4986091;28;20301;-73
2021/01/13 10:46:53;;;;;;;7.07;4.93;;;;;;;0.35;82.52;98028.81;4980506;28;20225;-74
2021/01/13 10:49:23;;;;;;;5.97;4.50;;;;;;;0.43;81.99;98030.00;4983960;28;20205;-73
2021/01/13 10:51:52;;;;;;;5.30;4.30;;;;;;;0.27;83.21;98027.56;4986235;28;20300;-73
2021/01/13 10:54:20;;;;;;;4.63;4.23;;;;;;;0.30;83.01;98023.06;4983810;28;20521;-73
2021/01/13 10:56:53;;;;;;;8.53;4.73;;;;;;;0.39;82.84;98025.09;4983443;28;20733;-73
2021/01/13 10:59:21;;;;;;;4.57;4.03;;;;;;;0.55;82.83;98009.28;4984411;28;20854;-74
2021/01/13 11:01:50;;;;;;;5.07;4.53;;;;;;;0.41;81.56;98010.19;4983417;28;20296;-73
2021/01/13 11:04:29;;;;;;;7.77;4.30;;;;;;;0.37;82.07;98001.69;4984275;28;20202;-72
2021/01/13 11:06:58;;;;;;;6.80;4.37;;;;;;;0.52;81.59;97999.88;4985015;28;20256;-73
2021/01/13 11:09:27;;;;;;;6.03;4.13;;;;;;;0.36;80.74;97991.38;4985236;28;20409;-73
2021/01/13 11:11:55;;;;;;;3.80;3.50;;;;;;;0.48;81.02;98003.63;4985317;28;20873;-72
2021/01/13 11:14:38;;;;;;;6.53;3.93;;;;;;;0.56;80.64;97996.13;4987988;28;20314;-73
2021/01/13 11:17:10;;;;;;;4.40;4.00;;;;;;;0.63;80.32;97986.13;4983427;28;20241;-73
2021/01/13 11:19:40;;;;;;;4.00;3.60;;;;;;;0.47;80.17;97988.91;4984819;28;20208;-73
2021/01/13 11:22:08;;;;;;;4.10;3.70;;;;;;;0.43;80.02;97990.91;4990759;28;20207;-73
2021/01/13 11:24:37;;;;;;;5.17;3.53;;;;;;;0.48;79.83;97985.38;4988164;28;20206;-73
2021/01/13 11:27:07;;;;;;;6.07;4.00;;;;;;;0.44;79.95;97976.06;4984765;28;21166;-73
2021/01/13 11:29:38;;;;;;;5.37;4.23;;;;;;;0.28;80.78;97977.09;4987830;28;20455;-73
2021/01/13 11:32:07;;;;;;;6.63;4.37;;;;;;;0.26;80.69;97976.34;4986301;28;20761;-73
2021/01/13 11:34:34;;;;;;;5.20;4.03;;;;;;;0.18;81.48;97985.59;4986136;28;20747;-74
2021/01/13 11:37:21;;;;;;;5.23;4.30;;;;;;;0.27;81.26;97993.66;4984688;28;20641;-73
2021/01/13 11:40:05;;;;;;;7.53;4.27;;;;;;;0.45;81.08;97974.31;4988205;28;20219;-73
2021/01/13 11:42:57;;;;;;;5.17;4.07;;;;;;;0.46;78.98;97968.16;4984065;28;20206;-73
2021/01/13 11:45:28;;;;;;;4.23;3.70;;;;;;;0.57;79.05;97969.13;4945723;28;20232;-73
2021/01/13 11:47:56;;;;;;;7.80;4.37;;;;;;;0.60;79.23;97954.22;4984172;28;20240;-73
2021/01/13 11:50:24;;;;;;;7.77;6.17;;;;;;;0.60;79.49;97968.09;4987452;28;20269;-74
2021/01/13 11:52:59;;;;;;;6.23;4.20;;;;;;;0.34;80.45;97964.59;4984581;28;20292;-73
2021/01/13 11:55:28;;;;;;;22.13;12.00;;;;;;;0.47;80.91;97949.78;4984211;28;20204;-73